createdAt,value
2019-04-06T00:00:14.750Z,61.00
2019-04-06T00:02:45.138Z,61.73
2019-04-06T00:05:15.514Z,68.80
2019-04-06T00:07:47.922Z,65.17
2019-04-06T00:10:18.684Z,71.70
2019-04-06T00:12:52.533Z,67.70
2019-04-06T00:15:24.746Z,66.17
2019-04-06T00:18:00.846Z,60.40
2019-04-06T00:20:33.918Z,72.20
2019-04-06T00:23:04.156Z,60.73
2019-04-06T00:25:43.722Z,60.37
2019-04-06T00:28:06.758Z,64.00
2019-04-06T00:30:45.990Z,69.47
2019-04-06T00:33:17.692Z,64.40
2019-04-06T00:35:48.593Z,62.03
2019-04-06T00:38:18.928Z,71.40
2019-04-06T00:40:49.374Z,63.87
2019-04-06T00:43:19.793Z,64.90
2019-04-06T00:45:50.396Z,64.57
2019-04-06T00:48:21.070Z,67.93
2019-04-06T00:50:54.883Z,67.70
2019-04-06T00:53:27.133Z,59.70
2019-04-06T00:55:57.457Z,73.77
2019-04-06T00:58:27.878Z,68.50
2019-04-06T01:00:58.153Z,68.13
2019-04-06T01:03:28.672Z,67.20
2019-04-06T01:05:59.268Z,72.43
2019-04-06T01:08:29.629Z,62.50
2019-04-06T01:11:00.373Z,68.37
2019-04-06T01:13:32.247Z,73.13
2019-04-06T01:16:02.439Z,69.73
2019-04-06T01:18:32.603Z,78.03
2019-04-06T01:21:02.723Z,78.60
2019-04-06T01:23:33.320Z,77.77
2019-04-06T01:26:07.369Z,77.40
2019-04-06T01:28:35.907Z,77.77
2019-04-06T01:31:06.251Z,73.07
2019-04-06T01:33:36.593Z,77.97
2019-04-06T01:36:07.013Z,81.70
2019-04-06T01:38:37.731Z,82.63
2019-04-06T01:41:08.291Z,79.63
2019-04-06T01:43:38.860Z,81.00
2019-04-06T01:46:09.223Z,77.97
2019-04-06T01:48:39.781Z,73.07
2019-04-06T01:51:10.155Z,73.70
2019-04-06T01:53:41.381Z,75.60
2019-04-06T01:56:18.288Z,82.37
2019-04-06T01:58:43.303Z,81.87
2019-04-06T02:01:22.687Z,74.23
2019-04-06T02:03:52.991Z,82.23
2019-04-06T02:06:23.426Z,83.63
2019-04-06T02:08:53.818Z,88.20
2019-04-06T02:11:24.304Z,80.73
2019-04-06T02:13:54.838Z,84.13
2019-04-06T02:16:25.196Z,83.00
2019-04-06T02:18:55.387Z,87.20
2019-04-06T02:21:25.586Z,95.07
2019-04-06T02:23:56.341Z,91.23
2019-04-06T02:26:30.955Z,88.43
2019-04-06T02:28:58.462Z,94.77
2019-04-06T02:31:53.798Z,95.73
2019-04-06T02:34:54.971Z,93.30
2019-04-06T02:37:34.495Z,89.50
2019-04-06T02:40:11.435Z,95.90
2019-04-06T02:42:51.033Z,95.60
2019-04-06T02:45:21.256Z,97.80
2019-04-06T02:47:51.473Z,92.53
2019-04-06T02:50:21.998Z,95.17
2019-04-06T02:52:52.440Z,97.43
2019-04-06T02:55:24.088Z,104.40
2019-04-06T02:57:54.394Z,97.57
2019-04-06T03:00:24.955Z,109.33
2019-04-06T03:02:55.352Z,99.77
2019-04-06T03:05:25.853Z,99.97
2019-04-06T03:07:56.464Z,99.73
2019-04-06T03:10:27.192Z,103.13
2019-04-06T03:13:00.485Z,107.93
2019-04-06T03:15:31.152Z,109.73
2019-04-06T03:18:01.962Z,108.27
2019-04-06T03:20:32.202Z,110.60
2019-04-06T03:23:02.539Z,110.97
2019-04-06T03:25:34.646Z,104.87
2019-04-06T03:28:05.132Z,93.70
2019-04-06T03:30:35.898Z,103.93
2019-04-06T03:33:06.329Z,108.30
2019-04-06T03:35:45.119Z,98.20
2019-04-06T03:38:10.518Z,110.37
2019-04-06T03:40:40.874Z,101.87
2019-04-06T03:43:11.165Z,101.37
2019-04-06T03:45:41.743Z,105.67
2019-04-06T03:48:12.350Z,98.20
2019-04-06T03:50:45.582Z,98.50
2019-04-06T03:53:15.837Z,110.57
2019-04-06T03:55:47.354Z,98.57
2019-04-06T03:58:17.679Z,95.87
2019-04-06T04:00:48.258Z,98.93
2019-04-06T04:03:18.639Z,100.90
2019-04-06T04:05:48.953Z,104.57
2019-04-06T04:08:19.273Z,103.40
2019-04-06T04:10:50.044Z,89.00
2019-04-06T04:13:20.440Z,95.77
2019-04-06T04:15:50.849Z,94.70
2019-04-06T04:18:21.269Z,94.80
2019-04-06T04:20:51.875Z,96.10
2019-04-06T04:23:22.029Z,92.53
2019-04-06T04:25:52.299Z,95.60
2019-04-06T04:28:22.483Z,85.93
2019-04-06T04:30:52.783Z,97.33
2019-04-06T04:33:23.366Z,92.67
2019-04-06T04:35:54.206Z,95.27
2019-04-06T04:38:26.923Z,94.90
2019-04-06T04:40:58.302Z,97.30
2019-04-06T04:43:28.937Z,90.57
2019-04-06T04:45:59.088Z,96.73
2019-04-06T04:48:29.357Z,93.27
2019-04-06T04:50:59.550Z,95.47
2019-04-06T04:53:31.160Z,97.77
2019-04-06T04:56:01.583Z,93.13
2019-04-06T04:58:31.888Z,89.17
2019-04-06T05:01:02.379Z,94.37
2019-04-06T05:03:32.863Z,89.30
2019-04-06T05:06:03.087Z,99.60
2019-04-06T05:08:33.436Z,91.13
2019-04-06T05:11:06.421Z,88.70
2019-04-06T05:13:36.631Z,90.87
2019-04-06T05:16:13.925Z,100.77
2019-04-06T05:18:44.767Z,88.83
2019-04-06T05:21:15.372Z,91.97
2019-04-06T05:23:46.831Z,80.60
2019-04-06T05:26:18.907Z,85.87
2019-04-06T05:28:49.133Z,86.47
2019-04-06T05:31:19.748Z,91.43
2019-04-06T05:33:50.372Z,88.17
2019-04-06T05:36:20.657Z,94.27
2019-04-06T05:38:50.948Z,84.33
2019-04-06T05:41:21.638Z,89.50
2019-04-06T05:43:52.119Z,79.83
2019-04-06T05:46:22.442Z,88.27
2019-04-06T05:48:52.663Z,88.93
2019-04-06T05:51:23.049Z,92.23
2019-04-06T05:53:59.506Z,83.33
2019-04-06T05:56:29.743Z,85.27
2019-04-06T05:59:00.355Z,83.50
2019-04-06T06:01:31.218Z,93.40
2019-04-06T06:04:01.436Z,79.57
2019-04-06T06:06:31.938Z,79.67
2019-04-06T06:09:02.719Z,87.13
2019-04-06T06:11:33.053Z,79.53
2019-04-06T06:14:05.874Z,80.80
2019-04-06T06:16:38.292Z,82.80
2019-04-06T06:19:08.923Z,89.73
2019-04-06T06:21:40.955Z,89.80
2019-04-06T06:24:11.287Z,88.13
2019-04-06T06:26:41.896Z,88.17
2019-04-06T06:29:12.580Z,85.63
2019-04-06T06:31:43.098Z,83.60
2019-04-06T06:34:13.831Z,80.73
2019-04-06T06:36:44.624Z,80.87
2019-04-06T06:39:15.064Z,81.67
2019-04-06T06:41:45.808Z,83.53
2019-04-06T06:44:20.434Z,81.47
2019-04-06T06:46:50.979Z,80.93
2019-04-06T06:49:24.663Z,80.00
2019-04-06T06:51:55.455Z,76.20
2019-04-06T06:54:25.911Z,82.83
2019-04-06T06:56:59.033Z,74.27
2019-04-06T06:59:30.187Z,72.60
2019-04-06T07:02:01.892Z,81.37
2019-04-06T07:04:35.957Z,73.87
2019-04-06T07:07:07.182Z,77.17
2019-04-06T07:09:38.041Z,74.37
2019-04-06T07:12:08.247Z,73.70
2019-04-06T07:14:38.587Z,74.10
2019-04-06T07:17:10.089Z,72.97
2019-04-06T07:19:40.822Z,73.80
2019-04-06T07:22:13.918Z,73.27
2019-04-06T07:24:44.691Z,79.03
2019-04-06T07:27:15.488Z,74.77
2019-04-06T07:29:46.750Z,71.43
2019-04-06T07:32:18.863Z,71.03
2019-04-06T07:34:49.638Z,73.93
2019-04-06T07:37:20.015Z,70.83
2019-04-06T07:39:50.751Z,73.17
2019-04-06T07:42:21.849Z,73.63
2019-04-06T07:44:52.283Z,71.77
2019-04-06T07:47:23.044Z,76.20
2019-04-06T07:49:54.050Z,71.60
2019-04-06T07:52:24.312Z,64.70
2019-04-06T07:55:22.504Z,67.07
2019-04-06T07:57:53.758Z,69.93
2019-04-06T08:00:26.637Z,75.50
2019-04-06T08:02:57.708Z,67.97
2019-04-06T08:05:31.306Z,73.00
2019-04-06T08:08:05.133Z,67.53
2019-04-06T08:10:36.194Z,73.90
2019-04-06T08:13:07.976Z,67.93
2019-04-06T08:15:57.598Z,69.63
2019-04-06T08:18:29.302Z,69.77
2019-04-06T08:21:00.354Z,69.87
2019-04-06T08:23:45.133Z,68.57
2019-04-06T08:26:18.619Z,71.47
2019-04-06T08:28:59.805Z,68.70
2019-04-06T08:31:24.674Z,70.33
2019-04-06T08:33:57.150Z,68.60
2019-04-06T08:36:42.512Z,65.37
2019-04-06T08:39:09.225Z,74.07
2019-04-06T08:41:39.882Z,66.23
2019-04-06T08:45:02.705Z,69.30
2019-04-06T08:46:46.271Z,68.90
2019-04-06T08:49:18.974Z,64.40
2019-04-06T08:51:54.639Z,66.70
2019-04-06T08:54:32.592Z,66.00
2019-04-06T08:57:05.418Z,70.30
2019-04-06T08:59:39.400Z,68.07
2019-04-06T09:02:11.086Z,69.43
2019-04-06T09:05:26.743Z,68.70
2019-04-06T09:07:57.302Z,64.47
2019-04-06T09:10:28.248Z,62.60
2019-04-06T09:12:59.081Z,63.77
2019-04-06T09:15:42.534Z,63.97
2019-04-06T09:18:13.498Z,70.43
2019-04-06T09:20:44.283Z,66.97
2019-04-06T09:23:16.120Z,62.57
2019-04-06T09:25:47.192Z,63.30
2019-04-06T09:28:21.099Z,62.07
2019-04-06T09:30:55.884Z,65.43
2019-04-06T09:33:27.114Z,64.73
2019-04-06T09:35:59.600Z,63.67
2019-04-06T09:38:31.774Z,61.87
2019-04-06T09:41:07.374Z,65.30
2019-04-06T09:43:39.058Z,62.97
2019-04-06T09:46:28.589Z,62.17
2019-04-06T09:49:30.501Z,61.17
2019-04-06T09:52:26.708Z,60.67
2019-04-06T09:55:22.183Z,61.33
2019-04-06T09:58:25.953Z,64.97
2019-04-06T10:01:09.548Z,60.70
2019-04-06T10:03:57.731Z,61.77
2019-04-06T10:06:49.405Z,59.90
2019-04-06T10:09:58.587Z,61.30
2019-04-06T10:12:47.687Z,57.00
2019-04-06T10:15:46.623Z,58.97
2019-04-06T10:18:47.745Z,55.90
2019-04-06T10:21:40.862Z,54.93
2019-04-06T10:24:29.059Z,61.67
2019-04-06T10:27:30.042Z,64.27
2019-04-06T10:30:22.453Z,62.10
2019-04-06T10:33:22.308Z,57.23
2019-04-06T10:36:04.194Z,54.27
2019-04-06T10:38:58.674Z,57.87
2019-04-06T10:42:06.101Z,60.03
2019-04-06T10:45:07.646Z,59.43
2019-04-06T10:47:53.292Z,53.63
2019-04-06T10:50:32.945Z,56.40
2019-04-06T10:53:19.058Z,55.50
2019-04-06T10:56:14.583Z,51.67
2019-04-06T10:58:54.783Z,57.70
2019-04-06T11:01:50.510Z,52.93
2019-04-06T11:04:58.173Z,50.70
2019-04-06T11:07:48.292Z,51.40
2019-04-06T11:10:29.820Z,56.30
2019-04-06T11:13:38.794Z,52.70
2019-04-06T11:16:21.357Z,52.43
2019-04-06T11:19:30.135Z,54.83
2019-04-06T11:22:32.263Z,51.60
2019-04-06T11:25:18.641Z,54.47
2019-04-06T11:28:10.739Z,53.30
2019-04-06T11:31:06.415Z,51.30
2019-04-06T11:33:57.302Z,52.30
2019-04-06T11:36:49.509Z,53.93
2019-04-06T11:39:51.086Z,51.33
2019-04-06T11:42:39.481Z,48.33
2019-04-06T11:45:16.174Z,49.07
2019-04-06T11:48:20.683Z,53.47
2019-04-06T11:51:25.464Z,56.10
2019-04-06T11:58:55.831Z,53.00
2019-04-06T12:01:58.056Z,52.10
2019-04-06T12:04:51.072Z,51.03
2019-04-06T12:07:36.587Z,53.63
2019-04-06T12:10:25.914Z,52.17
2019-04-06T12:13:48.931Z,54.17
2019-04-06T12:16:48.143Z,48.90
2019-04-06T12:19:43.130Z,48.63
2019-04-06T12:22:54.814Z,48.77
2019-04-06T12:25:54.103Z,54.47
2019-04-06T12:28:33.849Z,56.37
2019-04-06T12:31:16.987Z,53.30
2019-04-06T12:33:58.054Z,50.50
2019-04-06T12:37:02.904Z,50.73
2019-04-06T12:39:58.773Z,50.83
2019-04-06T12:42:52.084Z,56.47
2019-04-06T12:45:42.730Z,52.53
2019-04-06T12:48:31.179Z,49.83
2019-04-06T12:51:18.921Z,54.10
2019-04-06T12:54:25.155Z,52.93
2019-04-06T12:57:17.758Z,51.33
2019-04-06T13:00:18.573Z,88.13
2019-04-06T13:03:10.948Z,48.03
2019-04-06T13:05:59.998Z,53.07
2019-04-06T13:08:56.030Z,48.67
2019-04-06T13:12:06.358Z,50.87
2019-04-06T13:14:50.094Z,50.03
2019-04-06T13:17:40.514Z,46.77
2019-04-06T13:20:19.659Z,45.57
2019-04-06T13:23:13.887Z,46.20
2019-04-06T13:26:04.077Z,51.13
2019-04-06T13:28:55.875Z,49.03
2019-04-06T13:31:45.544Z,50.07
2019-04-06T13:34:43.273Z,44.77
2019-04-06T13:37:31.368Z,48.87
2019-04-06T13:40:21.633Z,50.47
2019-04-06T13:43:13.900Z,46.17
2019-04-06T13:46:08.241Z,46.93
2019-04-06T13:48:57.842Z,45.17
2019-04-06T13:51:53.772Z,49.07
2019-04-06T13:54:37.649Z,46.77
2019-04-06T13:57:39.510Z,44.87
2019-04-06T14:00:37.922Z,76.73
2019-04-06T14:03:18.217Z,50.37
2019-04-06T14:06:02.203Z,51.90
2019-04-06T14:08:47.596Z,45.30
2019-04-06T14:11:29.669Z,51.17
2019-04-06T14:14:19.352Z,48.57
2019-04-06T14:17:10.258Z,50.77
2019-04-06T14:20:09.131Z,50.00
2019-04-06T14:22:55.677Z,48.80
2019-04-06T14:25:53.253Z,51.20
2019-04-06T14:28:42.153Z,48.97
2019-04-06T14:31:37.676Z,44.73
2019-04-06T14:35:01.885Z,49.90
2019-04-06T14:37:59.000Z,46.67
2019-04-06T14:40:46.659Z,45.77
2019-04-06T14:43:48.941Z,49.53
2019-04-06T14:46:48.651Z,44.87
2019-04-06T14:49:38.728Z,49.20
2019-04-06T14:52:15.753Z,49.33
2019-04-06T14:55:09.198Z,49.03
2019-04-06T14:58:01.251Z,46.07
2019-04-06T15:00:50.124Z,45.27
2019-04-06T15:03:42.582Z,44.27
2019-04-06T15:06:31.460Z,46.90
2019-04-06T15:09:35.948Z,45.30
2019-04-06T15:12:20.242Z,47.60
2019-04-06T15:15:45.075Z,47.50
2019-04-06T15:19:06.530Z,48.53
2019-04-06T15:22:04.708Z,43.97
2019-04-06T15:24:52.165Z,41.23
2019-04-06T15:27:40.952Z,44.33
2019-04-06T15:30:24.700Z,46.37
2019-04-06T15:33:33.087Z,48.30
2019-04-06T15:36:31.922Z,49.23
2019-04-06T15:39:22.912Z,48.30
2019-04-06T15:42:21.750Z,52.47
2019-04-06T15:45:15.534Z,54.07
2019-04-06T15:48:52.381Z,51.57
2019-04-06T15:51:49.906Z,52.87
2019-04-06T15:54:46.402Z,49.87
2019-04-06T15:57:28.881Z,53.57
2019-04-06T16:00:24.594Z,52.27
2019-04-06T16:03:17.607Z,50.80
2019-04-06T16:06:06.021Z,48.27
2019-04-06T16:09:09.557Z,51.37
2019-04-06T16:11:59.306Z,55.03
2019-04-06T16:15:02.183Z,47.97
2019-04-06T16:17:58.457Z,52.13
2019-04-06T16:20:53.799Z,47.97
2019-04-06T16:24:03.513Z,50.33
2019-04-06T16:27:12.048Z,48.83
2019-04-06T16:30:51.564Z,47.27
2019-04-06T16:40:52.536Z,50.33
2019-04-06T16:43:54.901Z,48.53
2019-04-06T16:46:59.346Z,44.27
2019-04-06T16:49:55.502Z,49.00
2019-04-06T16:53:20.315Z,49.93
2019-04-06T16:56:18.877Z,45.97
2019-04-06T17:03:31.210Z,49.67
2019-04-06T17:14:50.945Z,44.57
2019-04-06T17:24:49.733Z,42.50
2019-04-06T17:43:37.246Z,38.57
2019-04-06T17:47:12.263Z,40.60
2019-04-06T17:50:14.453Z,40.20
2019-04-06T17:53:24.593Z,38.77
2019-04-06T17:56:37.603Z,39.13
2019-04-06T17:59:45.334Z,43.63
2019-04-06T18:02:27.401Z,41.37
2019-04-06T18:05:10.705Z,39.57
2019-04-06T18:08:05.315Z,42.07
2019-04-06T18:10:58.235Z,44.10
2019-04-06T18:14:02.037Z,40.37
2019-04-06T18:16:38.688Z,38.60
2019-04-06T18:19:16.895Z,42.23
2019-04-06T18:21:50.734Z,46.17
2019-04-06T18:24:25.947Z,46.00
2019-04-06T18:27:18.785Z,44.57
2019-04-06T18:29:52.014Z,43.57
2019-04-06T18:32:38.370Z,48.63
2019-04-06T18:35:12.340Z,43.27
2019-04-06T18:38:02.430Z,48.03
2019-04-06T18:43:21.740Z,53.03
2019-04-06T18:45:53.333Z,46.03
2019-04-06T18:48:35.411Z,49.93
2019-04-06T18:51:17.010Z,48.73
2019-04-06T18:53:47.524Z,51.03
2019-04-06T18:56:20.318Z,50.40
2019-04-06T18:58:53.849Z,51.33
2019-04-06T19:01:26.392Z,52.40
2019-04-06T19:04:06.594Z,48.20
2019-04-06T19:06:43.122Z,53.93
2019-04-06T19:09:23.778Z,55.87
2019-04-06T19:11:55.072Z,53.10
2019-04-06T19:14:30.794Z,57.73
2019-04-06T19:17:07.304Z,53.43
2019-04-06T19:19:46.670Z,56.20
2019-04-06T19:22:18.306Z,60.03
2019-04-06T19:24:52.814Z,58.93
2019-04-06T19:27:25.333Z,56.10
2019-04-06T19:30:02.065Z,57.67
2019-04-06T19:32:39.144Z,56.07
2019-04-06T19:35:17.639Z,55.13
2019-04-06T19:38:00.919Z,60.87
2019-04-06T19:40:40.103Z,51.17
2019-04-06T19:43:17.234Z,56.27
2019-04-06T19:45:51.346Z,56.80
2019-04-06T19:48:25.848Z,56.70
2019-04-06T19:51:24.482Z,57.33
2019-04-06T19:53:56.557Z,59.00
2019-04-06T19:56:29.986Z,58.37
2019-04-06T19:59:12.571Z,57.20
2019-04-06T20:01:48.301Z,58.43
2019-04-06T20:04:50.876Z,58.73
2019-04-06T20:07:31.553Z,53.87
2019-04-06T20:10:10.964Z,60.97
2019-04-06T20:12:44.539Z,57.90
2019-04-06T20:15:16.469Z,55.83
2019-04-06T20:17:50.583Z,59.60
2019-04-06T20:20:31.663Z,59.57
2019-04-06T20:23:11.645Z,56.37
2019-04-06T20:25:46.364Z,62.23
2019-04-06T20:28:46.911Z,61.90
2019-04-06T20:31:39.620Z,58.07
2019-04-06T20:34:11.880Z,55.80
2019-04-06T20:39:34.309Z,56.57
2019-04-06T20:42:19.994Z,63.20
2019-04-06T20:45:06.292Z,57.00
2019-04-06T20:47:45.062Z,62.53
2019-04-06T20:50:29.878Z,57.00
2019-04-06T20:53:12.368Z,56.67
2019-04-06T20:55:46.269Z,56.83
2019-04-06T20:58:23.709Z,53.57
2019-04-06T21:00:56.154Z,58.10
2019-04-06T21:03:31.880Z,51.80
2019-04-06T21:06:22.149Z,52.80
2019-04-06T21:09:10.784Z,50.07
2019-04-06T21:11:48.004Z,52.90
2019-04-06T21:14:40.490Z,47.40
2019-04-06T21:17:27.671Z,57.83
2019-04-06T21:20:08.290Z,56.10
2019-04-06T21:22:58.597Z,51.13
2019-04-06T21:25:31.122Z,53.10
2019-04-06T21:28:02.071Z,51.70
2019-04-06T21:30:41.514Z,47.27
2019-04-06T21:33:14.736Z,49.43
2019-04-06T21:35:52.667Z,53.90
2019-04-06T21:38:24.194Z,50.90
2019-04-06T21:41:03.937Z,54.00
2019-04-06T21:43:43.388Z,49.23
2019-04-06T21:46:14.169Z,59.73
2019-04-06T21:48:46.911Z,49.27
2019-04-06T21:51:20.233Z,51.97
2019-04-06T21:53:50.675Z,52.90
2019-04-06T21:56:22.678Z,54.13
2019-04-06T21:59:00.470Z,49.23
2019-04-06T22:01:35.791Z,53.37
2019-04-06T22:04:08.065Z,49.00
2019-04-06T22:06:41.374Z,45.17
2019-04-06T22:09:18.616Z,49.03
2019-04-06T22:11:49.168Z,46.63
2019-04-06T22:14:27.046Z,50.63
2019-04-06T22:17:05.508Z,53.30
2019-04-06T22:19:39.212Z,50.27
2019-04-06T22:22:11.782Z,53.37
2019-04-06T22:24:50.258Z,46.50
2019-04-06T22:27:21.173Z,50.90
2019-04-06T22:29:57.714Z,55.80
2019-04-06T22:32:33.733Z,57.30
2019-04-06T22:35:11.502Z,49.27
2019-04-06T22:37:42.012Z,55.17
2019-04-06T22:40:13.352Z,55.93
2019-04-06T22:42:47.762Z,50.60
2019-04-06T22:45:20.773Z,53.00
2019-04-06T22:47:56.609Z,51.17
2019-04-06T22:50:34.044Z,50.87
2019-04-06T22:53:04.871Z,50.77
2019-04-06T22:55:35.526Z,56.83
2019-04-06T22:58:06.621Z,55.90
2019-04-06T23:00:48.684Z,52.70
2019-04-06T23:03:48.007Z,53.33
2019-04-06T23:06:28.972Z,58.13
2019-04-06T23:08:59.805Z,56.20
2019-04-06T23:11:30.727Z,57.97
2019-04-06T23:14:04.942Z,57.23
2019-04-06T23:16:35.542Z,55.13
2019-04-06T23:19:06.337Z,60.53
2019-04-06T23:21:37.232Z,53.23
2019-04-06T23:24:10.254Z,61.10
2019-04-06T23:26:45.497Z,55.43
2019-04-06T23:29:16.607Z,54.57
2019-04-06T23:31:53.119Z,53.00
2019-04-06T23:34:24.029Z,50.17
2019-04-06T23:36:55.774Z,49.60
2019-04-06T23:39:27.017Z,48.73
2019-04-06T23:42:04.629Z,42.43
2019-04-06T23:44:35.036Z,54.77
2019-04-06T23:47:05.785Z,45.00
2019-04-06T23:49:38.389Z,43.17
2019-04-06T23:52:12.047Z,45.73
2019-04-06T23:54:44.507Z,46.20
2019-04-06T23:57:16.962Z,47.50
2019-04-06T23:59:52.730Z,51.73
